sensor_id;sensor_type;location;lat;lon;timestamp;pressure;altitude;pressure_sealevel;temperature;humidity
45074;BME280;31570;51.688;5.860;2022-08-03T14:17:03;101318.50;;;25.89;51.70
45074;BME280;31570;51.688;5.860;2022-08-03T14:24:14;101312.09;;;26.59;50.05
45074;BME280;31570;51.688;5.860;2022-08-03T14:26:41;101308.38;;;26.75;49.98
45074;BME280;31570;51.688;5.860;2022-08-03T14:29:08;101301.34;;;26.95;50.28
45074;BME280;31570;51.688;5.860;2022-08-03T14:31:35;101300.19;;;27.13;49.05
45074;BME280;31570;51.688;5.860;2022-08-03T14:34:27;101297.66;;;27.26;48.79
45074;BME280;31570;51.688;5.860;2022-08-03T14:36:54;101292.72;;;27.36;48.93
45074;BME280;31570;51.688;5.860;2022-08-03T14:39:20;101290.28;;;27.41;48.22
45074;BME280;31570;51.688;5.860;2022-08-03T14:41:47;101296.53;;;27.35;48.38
45074;BME280;31570;51.688;5.860;2022-08-03T14:44:13;101284.59;;;27.28;48.96
45074;BME280;31570;51.688;5.860;2022-08-03T14:46:41;101285.66;;;27.27;48.68
45074;BME280;31570;51.688;5.860;2022-08-03T14:49:08;101279.97;;;27.29;48.81
45074;BME280;31570;51.688;5.860;2022-08-03T14:51:54;101277.41;;;27.27;49.19
45074;BME280;31570;51.688;5.860;2022-08-03T14:54:21;101277.59;;;27.25;48.47
45074;BME280;31570;51.688;5.860;2022-08-03T14:56:48;101269.34;;;27.25;48.81
45074;BME280;31570;51.688;5.860;2022-08-03T14:59:14;101264.72;;;27.26;48.48
45074;BME280;31570;51.688;5.860;2022-08-03T15:01:41;101269.19;;;27.27;48.75
45074;BME280;31570;51.688;5.860;2022-08-03T15:04:27;101260.09;;;27.26;48.51
45074;BME280;31570;51.688;5.860;2022-08-03T15:06:54;101265.38;;;27.28;48.36
45074;BME280;31570;51.688;5.860;2022-08-03T15:09:20;101258.00;;;27.29;48.34
45074;BME280;31570;51.688;5.860;2022-08-03T15:11:49;101254.41;;;27.28;48.39
45074;BME280;31570;51.688;5.860;2022-08-03T15:14:17;101251.66;;;27.28;48.32
45074;BME280;31570;51.688;5.860;2022-08-03T15:16:53;101254.41;;;27.28;48.02
45074;BME280;31570;51.688;5.860;2022-08-03T15:19:20;101248.25;;;27.26;48.46
45074;BME280;31570;51.688;5.860;2022-08-03T15:22:06;101248.91;;;27.28;48.23
45074;BME280;31570;51.688;5.860;2022-08-03T15:24:34;101249.78;;;27.29;48.51
45074;BME280;31570;51.688;5.860;2022-08-03T15:27:00;101257.16;;;27.28;48.35
45074;BME280;31570;51.688;5.860;2022-08-03T15:29:31;101242.38;;;27.29;48.12
45074;BME280;31570;51.688;5.860;2022-08-03T15:32:18;101251.47;;;27.30;48.25
45074;BME280;31570;51.688;5.860;2022-08-03T15:34:45;101245.97;;;27.30;48.50
45074;BME280;31570;51.688;5.860;2022-08-03T15:37:16;101250.25;;;27.32;48.41
45074;BME280;31570;51.688;5.860;2022-08-03T15:39:42;101251.75;;;27.35;48.17
45074;BME280;31570;51.688;5.860;2022-08-03T15:42:28;101247.13;;;27.35;48.47
45074;BME280;31570;51.688;5.860;2022-08-03T15:44:55;101243.31;;;27.36;48.42
45074;BME280;31570;51.688;5.860;2022-08-03T15:47:22;101245.06;;;27.37;48.28
45074;BME280;31570;51.688;5.860;2022-08-03T15:49:48;101239.56;;;27.37;48.16
45074;BME280;31570;51.688;5.860;2022-08-03T15:52:15;101234.91;;;27.38;48.24
45074;BME280;31570;51.688;5.860;2022-08-03T15:54:41;101239.19;;;27.40;48.13
45074;BME280;31570;51.688;5.860;2022-08-03T15:57:08;101230.94;;;27.40;48.04
45074;BME280;31570;51.688;5.860;2022-08-03T15:59:34;101235.59;;;27.40;48.04
45074;BME280;31570;51.688;5.860;2022-08-03T16:02:01;101229.03;;;27.41;48.18
45074;BME280;31570;51.688;5.860;2022-08-03T16:04:27;101226.31;;;27.41;48.05
45074;BME280;31570;51.688;5.860;2022-08-03T16:06:54;101228.84;;;27.42;47.96
45074;BME280;31570;51.688;5.860;2022-08-03T16:09:20;101219.59;;;27.43;47.97
45074;BME280;31570;51.688;5.860;2022-08-03T16:12:07;101221.06;;;27.46;48.14
45074;BME280;31570;51.688;5.860;2022-08-03T16:14:45;101214.56;;;27.47;48.23
45074;BME280;31570;51.688;5.860;2022-08-03T16:17:20;101218.16;;;27.47;47.84
45074;BME280;31570;51.688;5.860;2022-08-03T16:19:47;101217.31;;;27.47;48.13
45074;BME280;31570;51.688;5.860;2022-08-03T16:22:14;101214.34;;;27.48;47.90
45074;BME280;31570;51.688;5.860;2022-08-03T16:24:45;101212.28;;;27.50;48.16
45074;BME280;31570;51.688;5.860;2022-08-03T16:27:12;101213.31;;;27.49;47.88
45074;BME280;31570;51.688;5.860;2022-08-03T16:29:58;101215.66;;;27.53;47.84
45074;BME280;31570;51.688;5.860;2022-08-03T16:32:25;101211.91;;;27.54;47.82
45074;BME280;31570;51.688;5.860;2022-08-03T16:34:51;101211.91;;;27.54;47.96
45074;BME280;31570;51.688;5.860;2022-08-03T16:37:21;101208.09;;;27.55;47.80
45074;BME280;31570;51.688;5.860;2022-08-03T16:40:14;101212.53;;;27.56;47.95
45074;BME280;31570;51.688;5.860;2022-08-03T16:42:45;101210.84;;;27.55;48.00
45074;BME280;31570;51.688;5.860;2022-08-03T16:45:17;101209.81;;;27.56;47.82
45074;BME280;31570;51.688;5.860;2022-08-03T16:48:16;101214.91;;;27.59;47.57
45074;BME280;31570;51.688;5.860;2022-08-03T16:51:07;101202.22;;;27.58;47.79
45074;BME280;31570;51.688;5.860;2022-08-03T16:54:02;101206.28;;;27.62;47.77
45074;BME280;31570;51.688;5.860;2022-08-03T16:56:37;101199.75;;;27.63;47.76
45074;BME280;31570;51.688;5.860;2022-08-03T16:59:21;101201.47;;;27.64;48.10
45074;BME280;31570;51.688;5.860;2022-08-03T17:02:29;101199.56;;;27.64;47.75
45074;BME280;31570;51.688;5.860;2022-08-03T17:05:42;101202.31;;;27.64;47.80
45074;BME280;31570;51.688;5.860;2022-08-03T17:08:24;101193.88;;;27.66;47.59
45074;BME280;31570;51.688;5.860;2022-08-03T17:10:53;101195.59;;;27.67;47.62
45074;BME280;31570;51.688;5.860;2022-08-03T17:13:23;101190.09;;;27.67;47.81
45074;BME280;31570;51.688;5.860;2022-08-03T17:16:08;101190.94;;;27.67;47.84
45074;BME280;31570;51.688;5.860;2022-08-03T17:18:51;101190.75;;;27.69;47.46
45074;BME280;31570;51.688;5.860;2022-08-03T17:21:26;101202.56;;;27.69;47.61
45074;BME280;31570;51.688;5.860;2022-08-03T17:24:19;101193.69;;;27.67;47.50
45074;BME280;31570;51.688;5.860;2022-08-03T17:26:52;101197.97;;;27.70;47.66
45074;BME280;31570;51.688;5.860;2022-08-03T17:29:22;101195.22;;;27.70;47.39
45074;BME280;31570;51.688;5.860;2022-08-03T17:31:51;101200.72;;;27.70;47.51
45074;BME280;31570;51.688;5.860;2022-08-03T17:34:19;101196.06;;;27.70;47.55
45074;BME280;31570;51.688;5.860;2022-08-03T17:36:52;101192.47;;;27.70;47.54
45074;BME280;31570;51.688;5.860;2022-08-03T17:39:40;101194.81;;;27.73;47.82
45074;BME280;31570;51.688;5.860;2022-08-03T17:42:27;101198.59;;;27.72;47.79
45074;BME280;31570;51.688;5.860;2022-08-03T17:45:01;101189.31;;;27.73;47.66
45074;BME280;31570;51.688;5.860;2022-08-03T17:47:32;101193.09;;;27.72;47.84
45074;BME280;31570;51.688;5.860;2022-08-03T17:50:11;101194.16;;;27.71;47.95
45074;BME280;31570;51.688;5.860;2022-08-03T17:52:59;101198.59;;;27.72;48.16
45074;BME280;31570;51.688;5.860;2022-08-03T17:55:42;101189.31;;;27.73;48.41
45074;BME280;31570;51.688;5.860;2022-08-03T17:59:12;101196.53;;;27.74;48.23
45074;BME280;31570;51.688;5.860;2022-08-03T18:02:12;101195.69;;;27.73;48.39
45074;BME280;31570;51.688;5.860;2022-08-03T18:05:13;101200.97;;;27.75;48.50
45074;BME280;31570;51.688;5.860;2022-08-03T18:07:46;101192.72;;;27.75;48.50
45074;BME280;31570;51.688;5.860;2022-08-03T18:10:25;101195.47;;;27.75;48.99
45074;BME280;31570;51.688;5.860;2022-08-03T18:13:14;101190.19;;;27.73;49.04
45074;BME280;31570;51.688;5.860;2022-08-03T18:15:59;101196.53;;;27.74;48.98
45074;BME280;31570;51.688;5.860;2022-08-03T18:18:35;101196.53;;;27.74;49.25
45074;BME280;31570;51.688;5.860;2022-08-03T18:21:11;101193.78;;;27.74;49.09
45074;BME280;31570;51.688;5.860;2022-08-03T18:23:46;101191.03;;;27.74;49.44
45074;BME280;31570;51.688;5.860;2022-08-03T18:26:19;101193.94;;;27.72;49.44
45074;BME280;31570;51.688;5.860;2022-08-03T18:28:50;101191.22;;;27.72;49.26
45074;BME280;31570;51.688;5.860;2022-08-03T18:31:20;101200.28;;;27.73;49.67
45074;BME280;31570;51.688;5.860;2022-08-03T18:34:09;101192.06;;;27.73;49.37
45074;BME280;31570;51.688;5.860;2022-08-03T18:36:59;101193.09;;;27.72;50.11
45074;BME280;31570;51.688;5.860;2022-08-03T18:39:35;101189.31;;;27.73;49.94
45074;BME280;31570;51.688;5.860;2022-08-03T18:42:18;101189.31;;;27.73;49.74
45074;BME280;31570;51.688;5.860;2022-08-03T18:44:53;101190.38;;;27.72;50.06
45074;BME280;31570;51.688;5.860;2022-08-03T18:50:35;101191.41;;;27.71;50.07
45074;BME280;31570;51.688;5.860;2022-08-03T18:56:53;101186.31;;;27.68;50.46
45074;BME280;31570;51.688;5.860;2022-08-03T18:59:33;101188.00;;;27.69;50.42
45074;BME280;31570;51.688;5.860;2022-08-03T19:05:23;101193.69;;;27.67;50.69
45074;BME280;31570;51.688;5.860;2022-08-03T19:08:29;101197.28;;;27.68;50.98
45074;BME280;31570;51.688;5.860;2022-08-03T19:11:01;101203.63;;;27.68;50.82
45074;BME280;31570;51.688;5.860;2022-08-03T19:13:42;101200.22;;;27.66;50.80
45074;BME280;31570;51.688;5.860;2022-08-03T19:16:48;101206.75;;;27.65;51.21
45074;BME280;31570;51.688;5.860;2022-08-03T19:19:21;101208.28;;;27.68;50.81
45074;BME280;31570;51.688;5.860;2022-08-03T19:21:50;101204.22;;;27.64;51.00
45074;BME280;31570;51.688;5.860;2022-08-03T19:24:18;101204.00;;;27.65;51.16
45074;BME280;31570;51.688;5.860;2022-08-03T19:26:53;101209.50;;;27.65;50.92
45074;BME280;31570;51.688;5.860;2022-08-03T19:29:29;101210.34;;;27.66;51.39
45074;BME280;31570;51.688;5.860;2022-08-03T19:32:16;101207.81;;;27.64;51.01
45074;BME280;31570;51.688;5.860;2022-08-03T19:34:46;101200.41;;;27.65;51.21
45074;BME280;31570;51.688;5.860;2022-08-03T19:37:18;101212.47;;;27.64;51.31
45074;BME280;31570;51.688;5.860;2022-08-03T19:39:47;101216.06;;;27.64;51.01
45074;BME280;31570;51.688;5.860;2022-08-03T19:42:33;101221.72;;;27.63;51.30
45074;BME280;31570;51.688;5.860;2022-08-03T19:45:07;101217.09;;;27.63;51.06
45074;BME280;31570;51.688;5.860;2022-08-03T19:48:03;101222.78;;;27.62;51.45
45074;BME280;31570;51.688;5.860;2022-08-03T19:50:38;101222.78;;;27.62;51.22
45074;BME280;31570;51.688;5.860;2022-08-03T19:53:11;101221.06;;;27.61;51.15
45074;BME280;31570;51.688;5.860;2022-08-03T19:55:40;101216.59;;;27.60;51.19
45074;BME280;31570;51.688;5.860;2022-08-03T19:58:15;101216.59;;;27.60;51.31
45074;BME280;31570;51.688;5.860;2022-08-03T20:00:54;101220.41;;;27.59;51.03
45074;BME280;31570;51.688;5.860;2022-08-03T20:03:21;101221.25;;;27.59;51.37
45074;BME280;31570;51.688;5.860;2022-08-03T20:05:50;101222.09;;;27.60;51.24
45074;BME280;31570;51.688;5.860;2022-08-03T20:08:19;101224.84;;;27.60;51.15
45074;BME280;31570;51.688;5.860;2022-08-03T20:10:47;101224.19;;;27.58;51.33
45074;BME280;31570;51.688;5.860;2022-08-03T20:13:17;101229.50;;;27.59;51.32
45074;BME280;31570;51.688;5.860;2022-08-03T20:15:44;101226.94;;;27.58;51.60
45074;BME280;31570;51.688;5.860;2022-08-03T20:18:11;101226.94;;;27.58;51.59
45074;BME280;31570;51.688;5.860;2022-08-03T20:20:44;101222.50;;;27.57;51.62
45074;BME280;31570;51.688;5.860;2022-08-03T20:23:18;101220.59;;;27.57;51.61
45074;BME280;31570;51.688;5.860;2022-08-03T20:25:54;101218.25;;;27.54;51.57
45074;BME280;31570;51.688;5.860;2022-08-03T20:28:35;101210.00;;;27.54;51.38
45074;BME280;31570;51.688;5.860;2022-08-03T20:31:23;101215.28;;;27.56;51.79
45074;BME280;31570;51.688;5.860;2022-08-03T20:34:02;101213.41;;;27.56;51.42
45074;BME280;31570;51.688;5.860;2022-08-03T20:36:29;101209.81;;;27.56;51.72
45074;BME280;31570;51.688;5.860;2022-08-03T20:38:55;101220.78;;;27.56;51.43
45074;BME280;31570;51.688;5.860;2022-08-03T20:41:23;101218.88;;;27.56;51.40
45074;BME280;31570;51.688;5.860;2022-08-03T20:43:50;101223.53;;;27.56;51.80
45074;BME280;31570;51.688;5.860;2022-08-03T20:46:18;101222.88;;;27.54;51.81
45074;BME280;31570;51.688;5.860;2022-08-03T20:49:05;101219.09;;;27.55;51.93
45074;BME280;31570;51.688;5.860;2022-08-03T20:51:33;101215.66;;;27.53;51.96
45074;BME280;31570;51.688;5.860;2022-08-03T20:54:19;101222.88;;;27.54;51.85
45074;BME280;31570;51.688;5.860;2022-08-03T20:56:57;101219.09;;;27.55;52.02
45074;BME280;31570;51.688;5.860;2022-08-03T20:59:24;101219.09;;;27.55;51.84
45074;BME280;31570;51.688;5.860;2022-08-03T21:02:04;101206.41;;;27.54;51.58
45074;BME280;31570;51.688;5.860;2022-08-03T21:04:31;101218.41;;;27.53;52.08
45074;BME280;31570;51.688;5.860;2022-08-03T21:07:02;101223.91;;;27.53;52.11
45074;BME280;31570;51.688;5.860;2022-08-03T21:09:53;101222.88;;;27.54;52.21
45074;BME280;31570;51.688;5.860;2022-08-03T21:15:07;101217.78;;;27.50;52.34
45074;BME280;31570;51.688;5.860;2022-08-03T21:17:37;101223.66;;;27.47;52.35
45074;BME280;31570;51.688;5.860;2022-08-03T21:20:09;101217.31;;;27.47;52.17
45074;BME280;31570;51.688;5.860;2022-08-03T21:22:37;101210.97;;;27.46;52.43
45074;BME280;31570;51.688;5.860;2022-08-03T21:25:07;101205.47;;;27.46;52.89
45074;BME280;31570;51.688;5.860;2022-08-03T21:27:35;101204.59;;;27.46;52.42
45074;BME280;31570;51.688;5.860;2022-08-03T21:30:06;101198.94;;;27.47;52.48
45074;BME280;31570;51.688;5.860;2022-08-03T21:32:33;101199.56;;;27.49;52.46
45074;BME280;31570;51.688;5.860;2022-08-03T21:34:59;101202.31;;;27.49;52.46
45074;BME280;31570;51.688;5.860;2022-08-03T21:37:27;101201.69;;;27.47;52.71
45074;BME280;31570;51.688;5.860;2022-08-03T21:39:54;101194.50;;;27.46;52.77
45074;BME280;31570;51.688;5.860;2022-08-03T21:42:22;101198.25;;;27.45;52.66
45074;BME280;31570;51.688;5.860;2022-08-03T21:44:50;101197.88;;;27.48;52.64
45074;BME280;31570;51.688;5.860;2022-08-03T21:47:20;101190.88;;;27.46;52.58
45074;BME280;31570;51.688;5.860;2022-08-03T21:49:51;101180.78;;;27.46;52.89
45074;BME280;31570;51.688;5.860;2022-08-03T21:52:40;101182.63;;;27.46;52.60
45074;BME280;31570;51.688;5.860;2022-08-03T21:55:07;101189.00;;;27.46;52.89
45074;BME280;31570;51.688;5.860;2022-08-03T21:57:50;101184.53;;;27.45;52.77
45074;BME280;31570;51.688;5.860;2022-08-03T22:00:18;101183.50;;;27.46;52.75
45074;BME280;31570;51.688;5.860;2022-08-03T22:02:53;101181.78;;;27.45;52.58
45074;BME280;31570;51.688;5.860;2022-08-03T22:05:22;101172.72;;;27.45;52.63
45074;BME280;31570;51.688;5.860;2022-08-03T22:08:11;101177.16;;;27.46;52.69
45074;BME280;31570;51.688;5.860;2022-08-03T22:10:38;101177.34;;;27.44;52.57
45074;BME280;31570;51.688;5.860;2022-08-03T22:13:05;101172.91;;;27.43;52.63
45074;BME280;31570;51.688;5.860;2022-08-03T22:15:32;101174.78;;;27.43;52.65
45074;BME280;31570;51.688;5.860;2022-08-03T22:17:59;101173.75;;;27.44;52.72
45074;BME280;31570;51.688;5.860;2022-08-03T22:20:29;101177.53;;;27.43;52.95
45074;BME280;31570;51.688;5.860;2022-08-03T22:22:59;101177.53;;;27.43;52.73
45074;BME280;31570;51.688;5.860;2022-08-03T22:25:28;101179.44;;;27.42;53.02
45074;BME280;31570;51.688;5.860;2022-08-03T22:27:57;101177.72;;;27.41;52.42
45074;BME280;31570;51.688;5.860;2022-08-03T22:30:24;101177.44;;;27.36;52.98
45074;BME280;31570;51.688;5.860;2022-08-03T22:32:52;101173.47;;;27.39;52.86
45074;BME280;31570;51.688;5.860;2022-08-03T22:35:23;101166.47;;;27.36;52.82
45074;BME280;31570;51.688;5.860;2022-08-03T22:37:53;101179.16;;;27.37;53.04
45074;BME280;31570;51.688;5.860;2022-08-03T22:40:20;101169.88;;;27.38;52.76
45074;BME280;31570;51.688;5.860;2022-08-03T22:42:47;101167.50;;;27.35;52.81
45074;BME280;31570;51.688;5.860;2022-08-03T22:45:18;101178.50;;;27.35;52.77
45074;BME280;31570;51.688;5.860;2022-08-03T22:48:06;101179.53;;;27.34;52.61
45074;BME280;31570;51.688;5.860;2022-08-03T22:50:33;101171.78;;;27.38;52.67
45074;BME280;31570;51.688;5.860;2022-08-03T22:53:00;101164.78;;;27.35;52.81
45074;BME280;31570;51.688;5.860;2022-08-03T22:55:27;101165.44;;;27.37;52.47
45074;BME280;31570;51.688;5.860;2022-08-03T22:57:54;101161.84;;;27.37;52.52
45074;BME280;31570;51.688;5.860;2022-08-03T23:00:22;101155.47;;;27.36;52.74
45074;BME280;31570;51.688;5.860;2022-08-03T23:02:50;101155.69;;;27.35;52.36
45074;BME280;31570;51.688;5.860;2022-08-03T23:05:27;101157.59;;;27.34;52.49
45074;BME280;31570;51.688;5.860;2022-08-03T23:08:19;101155.00;;;27.33;52.58
45074;BME280;31570;51.688;5.860;2022-08-03T23:10:50;101155.91;;;27.33;52.53
45074;BME280;31570;51.688;5.860;2022-08-03T23:13:18;101154.16;;;27.32;52.20
45074;BME280;31570;51.688;5.860;2022-08-03T23:15:56;101155.22;;;27.31;52.62
45074;BME280;31570;51.688;5.860;2022-08-03T23:18:24;101157.97;;;27.31;52.34
45074;BME280;31570;51.688;5.860;2022-08-03T23:20:56;101152.47;;;27.31;52.60
45074;BME280;31570;51.688;5.860;2022-08-03T23:23:23;101155.91;;;27.33;52.61
45074;BME280;31570;51.688;5.860;2022-08-03T23:25:50;101155.22;;;27.31;52.52
45074;BME280;31570;51.688;5.860;2022-08-03T23:28:17;101154.16;;;27.32;52.85
45074;BME280;31570;51.688;5.860;2022-08-03T23:30:44;101162.22;;;27.34;52.27
45074;BME280;31570;51.688;5.860;2022-08-03T23:33:13;101155.69;;;27.35;52.36
45074;BME280;31570;51.688;5.860;2022-08-03T23:35:42;101152.09;;;27.34;52.36
45074;BME280;31570;51.688;5.860;2022-08-03T23:38:44;101152.09;;;27.34;52.78
45074;BME280;31570;51.688;5.860;2022-08-03T23:41:11;101154.00;;;27.34;52.59
45074;BME280;31570;51.688;5.860;2022-08-03T23:43:38;101152.94;;;27.35;52.33
45074;BME280;31570;51.688;5.860;2022-08-03T23:46:20;101148.69;;;27.32;52.33
45074;BME280;31570;51.688;5.860;2022-08-03T23:48:49;101154.16;;;27.32;52.14
45074;BME280;31570;51.688;5.860;2022-08-03T23:59:45;101138.94;;;27.30;52.58
